Time;durP1;ratioP1;P1;durP2;ratioP2;P2;SDS_P1;SDS_P2;PMS_P1;PMS_P2;Temp;Humidity;BMP_temperature;BMP_pressure;BME280_temperature;BME280_humidity;BME280_pressure;Samples;Min_cycle;Max_cycle;Signal;HPM_P1;HPM_P2
2021/09/15 00:00:05;;;;;;;8.55;7.70;;;17.20;99.90;;;;;;5072525;28;20255;-80
2021/09/15 00:02:31;;;;;;;9.20;7.90;;;17.20;99.90;;;;;;5073046;28;20300;-79
2021/09/15 00:04:57;;;;;;;8.00;7.20;;;17.20;99.90;;;;;;5073572;28;20181;-81
2021/09/15 00:07:22;;;;;;;8.65;7.85;;;17.20;99.90;;;;;;5076891;28;20195;-79
2021/09/15 00:09:48;;;;;;;7.88;7.18;;;17.20;99.90;;;;;;5070815;28;20267;-82
2021/09/15 00:12:13;;;;;;;8.27;7.43;;;17.10;99.90;;;;;;5072475;28;20596;-79
2021/09/15 00:14:39;;;;;;;7.68;6.95;;;17.10;99.90;;;;;;5074030;28;20576;-80
2021/09/15 00:17:05;;;;;;;8.05;6.75;;;17.10;99.90;;;;;;5074403;28;20192;-80
2021/09/15 00:19:30;;;;;;;8.75;6.95;;;17.10;99.90;;;;;;5054801;28;20242;-78
2021/09/15 00:21:56;;;;;;;9.43;7.93;;;17.10;99.90;;;;;;5075786;28;20762;-81
2021/09/15 00:24:22;;;;;;;9.48;8.27;;;17.10;99.90;;;;;;5074539;28;20914;-82
2021/09/15 00:26:47;;;;;;;8.85;8.05;;;17.10;99.90;;;;;;5070473;28;20639;-81
2021/09/15 00:29:13;;;;;;;9.65;7.85;;;17.10;99.90;;;;;;5068758;28;20189;-79
2021/09/15 00:31:39;;;;;;;8.85;8.05;;;17.00;99.90;;;;;;5070502;28;20601;-82
2021/09/15 00:34:04;;;;;;;9.35;8.00;;;17.10;99.90;;;;;;5074278;28;20314;-79
2021/09/15 00:36:30;;;;;;;9.90;8.85;;;17.10;99.90;;;;;;5075227;28;20189;-76
2021/09/15 00:38:56;;;;;;;9.95;8.35;;;17.10;99.90;;;;;;5078230;28;20757;-81
2021/09/15 00:41:21;;;;;;;9.07;8.18;;;17.10;99.90;;;;;;5078320;28;20223;-79
2021/09/15 00:44:08;;;;;;;9.57;8.68;;;17.00;99.90;;;;;;5074313;28;20264;-80
2021/09/15 00:46:36;;;;;;;9.35;8.40;;;17.00;99.90;;;;;;5075500;28;20177;-79
2021/09/15 00:49:03;;;;;;;10.82;8.32;;;17.00;99.90;;;;;;5058476;28;20177;-81
2021/09/15 00:51:33;;;;;;;8.57;7.78;;;17.00;99.90;;;;;;5075662;28;20212;-78
2021/09/15 00:53:59;;;;;;;9.23;8.32;;;17.00;99.90;;;;;;5078680;28;20178;-80
2021/09/15 00:56:26;;;;;;;9.18;8.27;;;17.00;99.90;;;;;;5075412;28;20192;-80
2021/09/15 00:58:52;;;;;;;11.90;9.38;;;17.10;99.90;;;;;;5076433;28;20188;-77
2021/09/15 01:01:17;;;;;;;10.45;8.82;;;17.10;99.90;;;;;;5077732;28;20631;-76
2021/09/15 01:03:43;;;;;;;8.75;7.85;;;17.10;99.90;;;;;;5075222;28;20789;-81
2021/09/15 01:06:10;;;;;;;9.25;8.35;;;17.10;99.90;;;;;;5059034;28;20185;-79
2021/09/15 01:08:37;;;;;;;9.07;8.27;;;17.10;99.90;;;;;;5077669;28;20593;-77
2021/09/15 01:11:03;;;;;;;9.43;8.50;;;17.10;99.90;;;;;;5074887;28;20585;-77
2021/09/15 01:13:30;;;;;;;9.40;8.50;;;17.00;99.90;;;;;;5076327;28;20191;-79
2021/09/15 01:15:56;;;;;;;9.48;8.57;;;17.00;99.90;;;;;;5076505;28;20260;-82
2021/09/15 01:18:22;;;;;;;10.88;8.77;;;17.10;99.90;;;;;;5072754;28;20243;-80
2021/09/15 01:20:48;;;;;;;9.77;8.85;;;17.10;99.90;;;;;;5073839;28;20213;-79
2021/09/15 01:23:13;;;;;;;10.15;8.48;;;17.00;99.90;;;;;;5073233;28;20259;-78
2021/09/15 01:25:39;;;;;;;9.63;8.73;;;17.00;99.90;;;;;;5080302;28;20173;-80
2021/09/15 01:28:05;;;;;;;10.30;8.82;;;17.00;99.90;;;;;;5075645;28;20559;-78
2021/09/15 01:30:32;;;;;;;9.65;8.70;;;17.00;99.90;;;;;;5068588;28;20288;-78
2021/09/15 01:32:57;;;;;;;9.55;8.65;;;17.00;99.90;;;;;;5077912;28;20185;-81
2021/09/15 01:35:23;;;;;;;9.80;8.80;;;17.00;99.90;;;;;;5077034;28;20185;-78
2021/09/15 01:37:49;;;;;;;10.05;8.88;;;16.90;99.90;;;;;;5074385;28;20269;-80
2021/09/15 01:40:15;;;;;;;10.23;9.15;;;16.90;99.90;;;;;;5074860;28;20212;-79
2021/09/15 01:42:40;;;;;;;10.90;9.80;;;16.90;99.90;;;;;;5075192;28;20566;-79
2021/09/15 01:45:09;;;;;;;10.82;9.77;;;16.80;99.90;;;;;;5078689;28;20188;-79
2021/09/15 01:47:34;;;;;;;9.63;8.73;;;16.80;99.90;;;;;;5074660;28;20181;-77
2021/09/15 01:50:00;;;;;;;11.52;9.90;;;16.80;99.90;;;;;;5072896;28;20181;-77
2021/09/15 01:52:26;;;;;;;11.55;9.43;;;16.80;99.90;;;;;;5069607;28;20186;-80
2021/09/15 01:54:52;;;;;;;10.43;9.32;;;16.80;99.90;;;;;;5074002;28;20736;-77
2021/09/15 01:57:17;;;;;;;10.85;9.75;;;16.90;99.90;;;;;;5070411;28;20268;-79
2021/09/15 01:59:43;;;;;;;10.55;9.30;;;16.80;99.90;;;;;;5056118;28;20182;-78
2021/09/15 02:02:11;;;;;;;10.13;9.13;;;16.80;99.90;;;;;;5073012;28;20217;-78
2021/09/15 02:04:41;;;;;;;10.90;9.70;;;16.80;99.90;;;;;;5072282;28;20200;-80
2021/09/15 02:07:07;;;;;;;11.00;9.90;;;16.80;99.90;;;;;;5076783;28;20200;-79
2021/09/15 02:09:32;;;;;;;10.82;9.73;;;16.80;99.90;;;;;;5073140;28;20192;-78
2021/09/15 02:11:58;;;;;;;10.93;9.68;;;16.80;99.90;;;;;;5074115;28;20197;-78
2021/09/15 02:14:24;;;;;;;10.55;9.50;;;16.80;99.90;;;;;;5075750;28;20200;-77
2021/09/15 02:16:50;;;;;;;10.35;9.25;;;16.80;99.90;;;;;;5075621;28;20194;-81
2021/09/15 02:19:16;;;;;;;10.27;9.27;;;16.80;99.90;;;;;;5071155;28;20669;-78
2021/09/15 02:21:42;;;;;;;10.63;9.57;;;16.80;99.90;;;;;;5073868;28;20207;-76
2021/09/15 02:24:08;;;;;;;10.07;9.18;;;16.90;99.90;;;;;;5074301;28;20670;-77
2021/09/15 02:26:35;;;;;;;11.52;10.32;;;16.90;99.90;;;;;;5066332;28;20216;-79
2021/09/15 02:29:03;;;;;;;11.13;10.02;;;16.90;99.90;;;;;;5075073;28;20313;-77
2021/09/15 02:31:29;;;;;;;11.10;10.00;;;16.90;99.90;;;;;;5075627;28;20250;-76
2021/09/15 02:33:55;;;;;;;11.10;9.90;;;16.90;99.90;;;;;;5073962;28;20262;-79
2021/09/15 02:36:21;;;;;;;11.75;10.15;;;16.90;99.90;;;;;;5074833;28;20181;-78
2021/09/15 02:38:47;;;;;;;12.05;10.38;;;16.90;99.90;;;;;;5055616;28;20195;-79
2021/09/15 02:41:13;;;;;;;11.27;10.07;;;16.90;99.90;;;;;;5072928;28;20736;-76
2021/09/15 02:43:39;;;;;;;12.05;10.13;;;16.80;99.90;;;;;;5071170;28;20185;-77
2021/09/15 02:46:04;;;;;;;11.05;9.95;;;16.80;99.90;;;;;;5072182;28;20181;-79
2021/09/15 02:48:30;;;;;;;11.10;9.95;;;16.90;99.90;;;;;;5072741;28;20264;-79
2021/09/15 02:50:56;;;;;;;11.88;10.75;;;16.80;99.90;;;;;;5077225;28;20204;-79
2021/09/15 02:53:21;;;;;;;11.50;10.30;;;16.90;99.90;;;;;;5072238;28;20457;-78
2021/09/15 02:55:47;;;;;;;12.15;10.88;;;16.90;99.90;;;;;;5054811;28;20185;-80
2021/09/15 02:58:13;;;;;;;11.43;10.35;;;16.80;99.90;;;;;;5074308;28;20181;-80
2021/09/15 03:00:39;;;;;;;10.95;9.85;;;16.90;99.90;;;;;;5074345;28;20236;-79
2021/09/15 03:03:04;;;;;;;11.30;10.23;;;16.90;99.90;;;;;;5072259;28;21139;-80
2021/09/15 03:05:31;;;;;;;12.18;10.98;;;16.80;99.90;;;;;;5076451;28;20592;-79
2021/09/15 03:07:58;;;;;;;11.77;10.68;;;16.80;99.90;;;;;;5074247;28;20217;-79
2021/09/15 03:10:24;;;;;;;11.88;10.10;;;16.80;99.90;;;;;;5072316;28;20210;-82
2021/09/15 03:12:50;;;;;;;11.82;10.60;;;16.80;99.90;;;;;;5072196;28;20181;-78
2021/09/15 03:15:15;;;;;;;11.25;10.15;;;16.80;99.90;;;;;;5073410;28;20186;-77
2021/09/15 03:17:41;;;;;;;11.90;10.70;;;16.80;99.90;;;;;;5057752;28;20177;-77
2021/09/15 03:20:07;;;;;;;11.10;10.00;;;16.80;99.90;;;;;;5070821;28;20358;-79
2021/09/15 03:22:33;;;;;;;11.63;10.30;;;16.80;99.90;;;;;;5073409;28;20205;-79
2021/09/15 03:24:59;;;;;;;11.40;10.20;;;16.80;99.90;;;;;;5070229;28;20177;-77
2021/09/15 03:27:24;;;;;;;11.73;10.63;;;16.80;99.90;;;;;;5072014;28;20596;-76
2021/09/15 03:29:50;;;;;;;11.45;10.38;;;16.80;99.90;;;;;;5071320;28;20184;-77
2021/09/15 03:32:16;;;;;;;11.57;10.38;;;16.80;99.90;;;;;;5077085;28;20291;-80
2021/09/15 03:34:41;;;;;;;11.82;10.63;;;16.80;99.90;;;;;;5071591;28;20185;-80
2021/09/15 03:37:07;;;;;;;11.50;10.40;;;16.80;99.90;;;;;;5071416;28;20262;-79
2021/09/15 03:39:32;;;;;;;12.52;11.23;;;16.70;99.90;;;;;;5075399;28;20185;-79
2021/09/15 03:41:58;;;;;;;14.20;9.90;;;16.70;99.90;;;;;;5073544;28;20634;-77
2021/09/15 03:44:24;;;;;;;16.30;10.82;;;16.60;99.90;;;;;;5072212;28;20177;-77
2021/09/15 03:46:50;;;;;;;13.23;10.73;;;16.60;99.90;;;;;;5072438;28;20549;-78
2021/09/15 03:49:15;;;;;;;13.00;11.13;;;16.60;99.90;;;;;;5070446;28;20280;-78
2021/09/15 03:51:41;;;;;;;12.82;11.52;;;16.60;99.90;;;;;;5072661;28;20205;-77
2021/09/15 03:54:07;;;;;;;13.13;11.32;;;16.60;99.90;;;;;;5074408;28;20354;-81
2021/09/15 03:56:32;;;;;;;12.63;11.23;;;16.60;99.90;;;;;;5074580;28;20181;-79
2021/09/15 03:58:58;;;;;;;12.32;11.13;;;16.60;99.90;;;;;;5069781;28;20192;-77
2021/09/15 04:01:23;;;;;;;11.85;10.75;;;16.60;99.90;;;;;;5069565;28;20777;-80
2021/09/15 04:03:49;;;;;;;13.10;11.30;;;16.60;99.90;;;;;;5071750;28;20280;-79
2021/09/15 04:06:14;;;;;;;13.02;11.27;;;16.60;99.90;;;;;;5072720;28;20217;-78
2021/09/15 04:08:40;;;;;;;12.45;11.15;;;16.70;99.90;;;;;;5054214;28;20216;-79
2021/09/15 04:11:06;;;;;;;13.13;11.75;;;16.70;99.90;;;;;;5052723;28;20262;-79
2021/09/15 04:13:31;;;;;;;12.75;10.98;;;16.70;99.90;;;;;;5071451;28;20268;-79
2021/09/15 04:15:57;;;;;;;12.73;11.43;;;16.70;99.90;;;;;;5069762;28;20181;-81
2021/09/15 04:18:23;;;;;;;13.77;11.57;;;16.70;99.90;;;;;;5070686;28;20184;-81
2021/09/15 04:20:49;;;;;;;12.13;10.82;;;16.70;99.90;;;;;;5070324;28;20206;-78
2021/09/15 04:23:22;;;;;;;12.68;11.38;;;16.70;99.90;;;;;;5073296;28;20181;-78
2021/09/15 04:31:19;;;;;;;12.93;11.63;;;16.70;99.90;;;;;;5070531;28;20211;-78
2021/09/15 04:33:45;;;;;;;13.05;11.55;;;16.70;99.90;;;;;;5071537;28;20223;-81
2021/09/15 04:36:11;;;;;;;15.48;12.30;;;16.70;99.90;;;;;;5072709;28;20224;-78
2021/09/15 04:38:37;;;;;;;13.82;11.93;;;16.70;99.90;;;;;;5071817;28;20181;-80
2021/09/15 04:41:03;;;;;;;14.70;12.75;;;16.70;99.90;;;;;;5071540;28;20204;-77
2021/09/15 04:43:28;;;;;;;13.43;12.05;;;16.70;99.90;;;;;;5072839;28;20622;-76
2021/09/15 04:45:54;;;;;;;13.93;12.32;;;16.70;99.90;;;;;;5053072;28;20177;-79
2021/09/15 04:48:20;;;;;;;13.43;11.95;;;16.60;99.90;;;;;;5072356;28;20371;-79
2021/09/15 04:50:46;;;;;;;13.05;11.77;;;16.70;99.90;;;;;;5054605;28;20680;-77
2021/09/15 04:53:11;;;;;;;12.75;11.40;;;16.60;99.90;;;;;;5071601;28;20672;-77
2021/09/15 04:55:37;;;;;;;14.18;12.45;;;16.70;99.90;;;;;;5071774;28;20590;-78
2021/09/15 04:58:04;;;;;;;12.73;11.43;;;16.60;99.90;;;;;;5073359;28;20523;-79
2021/09/15 05:00:30;;;;;;;15.55;11.93;;;16.60;99.90;;;;;;5070083;28;20203;-77
2021/09/15 05:02:56;;;;;;;14.05;12.65;;;16.60;99.90;;;;;;5069023;28;20192;-79
2021/09/15 05:05:22;;;;;;;14.07;12.63;;;16.60;99.90;;;;;;5069746;28;20189;-76
2021/09/15 05:07:48;;;;;;;13.93;12.48;;;16.60;99.90;;;;;;5070386;28;20720;-80
2021/09/15 05:10:13;;;;;;;15.18;13.68;;;16.60;99.90;;;;;;5071284;28;20236;-80
2021/09/15 05:12:39;;;;;;;14.75;13.18;;;16.60;99.90;;;;;;5072531;28;20633;-77
2021/09/15 05:15:06;;;;;;;15.00;13.07;;;16.60;99.90;;;;;;5069702;28;20676;-81
2021/09/15 05:17:32;;;;;;;14.23;12.80;;;16.60;99.90;;;;;;5068489;28;20702;-80
2021/09/15 05:19:58;;;;;;;15.30;13.43;;;16.60;99.90;;;;;;5074174;28;20328;-80
2021/09/15 05:22:26;;;;;;;14.38;12.90;;;16.60;99.90;;;;;;5076581;28;20208;-78
2021/09/15 05:24:52;;;;;;;14.82;13.32;;;16.60;99.90;;;;;;5077115;28;20688;-76
2021/09/15 05:27:18;;;;;;;14.82;13.32;;;16.60;99.90;;;;;;5071058;28;21123;-78
2021/09/15 05:29:57;;;;;;;13.60;12.10;;;16.60;99.90;;;;;;5072684;28;20177;-79
2021/09/15 05:32:22;;;;;;;15.82;12.65;;;16.60;99.90;;;;;;5074338;28;20226;-79
2021/09/15 05:34:48;;;;;;;14.10;12.70;;;16.60;99.90;;;;;;5074882;28;20644;-79
2021/09/15 05:37:14;;;;;;;15.15;13.30;;;16.70;99.90;;;;;;5055691;28;20181;-80
2021/09/15 05:39:40;;;;;;;15.05;13.45;;;16.80;99.90;;;;;;5073847;28;20180;-79
2021/09/15 05:42:05;;;;;;;13.43;12.13;;;16.80;99.90;;;;;;5075705;28;20247;-79
2021/09/15 05:44:31;;;;;;;15.23;12.65;;;16.80;99.90;;;;;;5074262;28;20216;-80
2021/09/15 05:46:57;;;;;;;17.67;13.45;;;16.90;99.90;;;;;;5077753;28;20184;-76
2021/09/15 05:49:22;;;;;;;14.68;13.18;;;16.90;99.90;;;;;;5074363;28;20219;-79
2021/09/15 05:51:48;;;;;;;15.15;12.75;;;16.90;99.90;;;;;;5074645;28;20204;-77
2021/09/15 05:54:14;;;;;;;15.80;13.52;;;16.90;99.90;;;;;;5072068;28;20202;-80
2021/09/15 05:56:39;;;;;;;14.40;12.90;;;17.00;99.90;;;;;;5073404;28;20566;-78
2021/09/15 05:59:05;;;;;;;14.05;12.60;;;17.10;99.90;;;;;;5075481;28;20193;-77
2021/09/15 06:01:31;;;;;;;15.68;13.27;;;17.20;99.90;;;;;;5055347;28;20240;-81
2021/09/15 06:03:56;;;;;;;14.20;12.70;;;17.20;99.90;;;;;;5076662;28;20220;-79
2021/09/15 06:06:22;;;;;;;15.38;13.57;;;17.30;99.90;;;;;;5073735;28;21023;-81
2021/09/15 06:08:48;;;;;;;14.63;13.23;;;17.30;99.90;;;;;;5074253;28;20191;-77
2021/09/15 06:11:14;;;;;;;14.82;12.98;;;17.50;99.90;;;;;;5072895;28;20205;-79
2021/09/15 06:13:40;;;;;;;17.20;12.73;;;17.60;99.90;;;;;;5074318;28;20261;-77
2021/09/15 06:16:06;;;;;;;13.95;12.55;;;17.60;99.90;;;;;;5072097;28;20190;-79
2021/09/15 06:18:35;;;;;;;14.80;13.30;;;17.80;99.90;;;;;;5071590;28;20173;-80
2021/09/15 06:21:02;;;;;;;15.25;13.65;;;17.90;99.90;;;;;;5072115;28;20236;-78
2021/09/15 06:23:30;;;;;;;13.77;12.38;;;17.90;99.90;;;;;;5069816;28;20195;-82
2021/09/15 06:25:56;;;;;;;14.77;12.05;;;18.00;99.90;;;;;;5070715;28;20180;-78
2021/09/15 06:28:22;;;;;;;14.93;12.98;;;18.10;99.90;;;;;;5052498;28;20221;-81
2021/09/15 06:30:48;;;;;;;13.57;12.18;;;18.20;99.90;;;;;;5067040;28;20209;-79
2021/09/15 06:33:14;;;;;;;13.55;12.15;;;18.30;99.90;;;;;;5067996;28;20607;-80
2021/09/15 06:35:41;;;;;;;13.32;11.95;;;18.40;99.90;;;;;;5058549;28;20192;-76
2021/09/15 06:38:11;;;;;;;13.02;11.77;;;18.50;99.90;;;;;;5052360;28;20197;-78
2021/09/15 06:40:37;;;;;;;18.15;12.38;;;18.70;99.90;;;;;;5070335;28;20200;-79
2021/09/15 06:43:03;;;;;;;13.07;11.75;;;19.00;99.90;;;;;;5056337;28;20189;-76
2021/09/15 06:45:28;;;;;;;13.18;11.68;;;19.10;99.90;;;;;;5070185;28;20544;-77
2021/09/15 06:47:54;;;;;;;13.77;11.57;;;19.30;99.90;;;;;;5074008;28;20199;-81
2021/09/15 06:50:20;;;;;;;12.90;11.00;;;19.40;99.90;;;;;;5069715;28;20282;-81
2021/09/15 06:52:45;;;;;;;12.30;11.00;;;19.60;99.90;;;;;;5055989;28;21304;-77
2021/09/15 06:55:11;;;;;;;11.90;10.70;;;19.80;99.90;;;;;;5052819;28;20184;-78
2021/09/15 06:57:38;;;;;;;12.43;10.23;;;19.90;99.90;;;;;;5052465;28;20189;-77
2021/09/15 07:00:05;;;;;;;11.30;10.13;;;20.00;99.90;;;;;;5074608;28;20217;-76
2021/09/15 07:02:31;;;;;;;10.63;9.52;;;20.20;99.90;;;;;;5062960;28;20762;-76
2021/09/15 07:04:58;;;;;;;10.52;9.43;;;20.30;99.90;;;;;;5062674;28;20286;-77
2021/09/15 07:07:23;;;;;;;10.93;9.82;;;20.50;99.90;;;;;;5063728;28;20215;-80
2021/09/15 07:09:49;;;;;;;10.32;9.25;;;20.50;99.90;;;;;;5073530;28;20220;-78
2021/09/15 07:12:15;;;;;;;10.63;9.52;;;20.50;99.90;;;;;;5075261;28;20201;-77
2021/09/15 07:14:44;;;;;;;11.88;9.18;;;20.40;99.90;;;;;;5054051;28;20192;-77
2021/09/15 07:17:13;;;;;;;10.05;8.80;;;20.40;99.90;;;;;;5066004;28;20709;-76
2021/09/15 07:19:39;;;;;;;10.40;8.45;;;20.60;99.90;;;;;;5053767;28;20201;-76
2021/09/15 07:22:07;;;;;;;10.25;9.07;;;20.60;99.90;;;;;;5071711;28;20676;-76
2021/09/15 07:24:36;;;;;;;9.30;8.38;;;20.50;99.90;;;;;;5077136;28;20192;-77
2021/09/15 07:27:16;;;;;;;9.50;8.15;;;20.60;99.90;;;;;;5057093;28;20177;-77
2021/09/15 07:29:42;;;;;;;9.82;8.77;;;20.60;99.90;;;;;;5007600;28;20585;-80
2021/09/15 07:32:14;;;;;;;9.05;8.15;;;20.50;99.90;;;;;;5067294;28;20704;-78
2021/09/15 07:34:45;;;;;;;9.35;8.27;;;20.50;99.90;;;;;;5064444;28;20300;-75
2021/09/15 07:37:14;;;;;;;9.55;8.60;;;20.50;99.90;;;;;;5077602;28;20239;-76
2021/09/15 07:39:42;;;;;;;10.50;9.40;;;20.50;99.90;;;;;;5075743;28;20224;-78
2021/09/15 07:42:08;;;;;;;10.50;9.40;;;20.50;99.90;;;;;;5058654;28;20224;-76
2021/09/15 07:44:35;;;;;;;11.80;8.80;;;20.40;99.90;;;;;;5053258;28;20181;-75
2021/09/15 07:47:02;;;;;;;10.60;8.98;;;20.50;99.90;;;;;;5062956;28;21115;-76
2021/09/15 07:49:28;;;;;;;11.00;9.90;;;20.50;99.90;;;;;;5070239;28;20181;-77
2021/09/15 07:51:54;;;;;;;11.80;9.90;;;20.60;99.90;;;;;;5051125;28;20635;-78
2021/09/15 07:54:20;;;;;;;13.27;9.98;;;20.80;99.90;;;;;;5054257;28;20660;-76
2021/09/15 07:56:46;;;;;;;10.35;9.05;;;21.10;99.90;;;;;;5066572;28;20188;-76
2021/09/15 07:59:13;;;;;;;9.85;8.85;;;21.40;99.90;;;;;;5070109;28;20245;-79
2021/09/15 08:01:38;;;;;;;11.23;9.27;;;21.60;99.90;;;;;;5069496;28;20727;-77
2021/09/15 08:04:04;;;;;;;13.25;9.30;;;21.70;99.90;;;;;;5054274;28;20211;-79
2021/09/15 08:06:30;;;;;;;10.20;8.52;;;21.90;99.90;;;;;;5065005;28;20197;-76
2021/09/15 08:08:56;;;;;;;9.23;7.88;;;22.00;99.90;;;;;;5071955;28;20242;-76
2021/09/15 08:11:22;;;;;;;9.02;7.75;;;22.20;99.90;;;;;;5054495;28;20567;-77
2021/09/15 08:13:48;;;;;;;7.70;6.38;;;22.40;99.90;;;;;;5053229;28;20180;-79
2021/09/15 08:16:14;;;;;;;6.95;6.35;;;22.60;99.90;;;;;;5072605;28;20193;-76
2021/09/15 08:18:39;;;;;;;7.40;6.70;;;22.80;99.90;;;;;;5071764;28;20176;-79
2021/09/15 08:21:06;;;;;;;7.05;6.35;;;22.70;99.90;;;;;;5072980;28;20274;-77
2021/09/15 08:23:32;;;;;;;6.88;6.28;;;22.80;99.90;;;;;;5065860;28;20172;-77
2021/09/15 08:25:58;;;;;;;7.25;6.60;;;22.80;99.90;;;;;;5055523;28;20267;-77
2021/09/15 08:28:25;;;;;;;7.57;6.78;;;22.80;99.90;;;;;;5055564;28;20633;-77
2021/09/15 08:30:52;;;;;;;8.35;7.28;;;22.80;99.90;;;;;;5068548;28;20296;-77
2021/09/15 08:33:18;;;;;;;7.10;6.40;;;22.80;99.90;;;;;;5049977;28;20268;-79
2021/09/15 08:35:44;;;;;;;7.18;6.47;;;22.90;99.90;;;;;;5071053;28;20181;-76
2021/09/15 08:38:11;;;;;;;7.15;6.55;;;23.00;99.90;;;;;;5071775;28;20640;-78
2021/09/15 08:40:38;;;;;;;7.40;6.63;;;23.10;99.90;;;;;;5050233;28;20235;-80
2021/09/15 08:43:04;;;;;;;7.45;6.63;;;23.00;99.90;;;;;;5068250;28;20181;-77
2021/09/15 08:45:30;;;;;;;7.68;6.63;;;23.00;99.90;;;;;;5053624;28;20188;-77
2021/09/15 08:47:56;;;;;;;7.07;6.22;;;23.10;99.90;;;;;;5045973;28;20956;-79
2021/09/15 08:50:23;;;;;;;6.88;6.07;;;23.30;99.90;;;;;;5052286;28;20217;-78
2021/09/15 08:52:49;;;;;;;6.78;6.05;;;23.40;99.90;;;;;;5054792;28;20272;-77
2021/09/15 08:55:15;;;;;;;6.45;5.85;;;23.30;99.90;;;;;;5059105;28;20213;-77
2021/09/15 08:57:41;;;;;;;6.63;6.03;;;23.40;99.90;;;;;;5057336;28;20231;-79
2021/09/15 09:00:09;;;;;;;6.53;5.93;;;23.40;99.90;;;;;;5073962;28;20396;-78
2021/09/15 09:02:40;;;;;;;6.88;5.90;;;23.30;99.90;;;;;;5074308;28;20684;-77
2021/09/15 09:05:07;;;;;;;7.55;5.63;;;23.30;99.90;;;;;;5085077;22;20233;-81
2021/09/15 09:07:34;;;;;;;6.80;6.10;;;23.50;99.90;;;;;;5052248;28;20269;-82
2021/09/15 09:10:09;;;;;;;6.20;5.60;;;23.60;99.90;;;;;;5071103;28;20185;-82
2021/09/15 09:12:37;;;;;;;6.20;5.60;;;23.90;99.90;;;;;;5064983;28;20204;-83
2021/09/15 09:15:25;;;;;;;5.93;5.32;;;24.10;99.90;;;;;;5075070;28;20196;-83
2021/09/15 09:17:51;;;;;;;5.88;5.35;;;24.20;99.90;;;;;;5058510;28;20177;-82
2021/09/15 09:20:23;;;;;;;7.20;5.85;;;24.20;99.90;;;;;;5056787;28;20196;-82
2021/09/15 09:23:12;;;;;;;6.07;5.47;;;24.20;99.90;;;;;;5074525;28;20225;-82
2021/09/15 09:25:50;;;;;;;6.32;5.72;;;23.90;99.90;;;;;;5056406;28;20181;-82
2021/09/15 09:28:33;;;;;;;6.20;5.60;;;23.90;99.90;;;;;;5073766;28;20201;-82
2021/09/15 09:31:04;;;;;;;6.15;5.53;;;23.90;99.90;;;;;;5052136;28;20463;-82
2021/09/15 09:33:29;;;;;;;5.88;4.80;;;23.90;99.90;;;;;;5075694;28;20306;-83
2021/09/15 09:35:58;;;;;;;5.90;5.40;;;23.90;99.90;;;;;;5050397;28;20560;-83
2021/09/15 09:38:33;;;;;;;6.15;5.55;;;24.00;99.90;;;;;;5065030;28;20263;-83
2021/09/15 09:41:06;;;;;;;6.38;5.78;;;24.20;99.90;;;;;;5065499;28;20374;-84
2021/09/15 09:43:58;;;;;;;5.80;5.30;;;24.30;99.90;;;;;;5063514;28;20287;-84
2021/09/15 09:46:33;;;;;;;6.20;5.60;;;24.30;99.90;;;;;;5049508;28;20200;-83
2021/09/15 09:49:01;;;;;;;7.35;5.80;;;24.40;99.90;;;;;;5049140;28;20553;-83
2021/09/15 09:51:38;;;;;;;7.40;5.53;;;24.60;99.90;;;;;;5044645;28;20193;-83
2021/09/15 09:54:27;;;;;;;5.68;5.18;;;24.90;99.90;;;;;;5066752;28;20197;-83
2021/09/15 09:56:54;;;;;;;5.47;4.97;;;25.00;99.90;;;;;;5048835;28;20185;-84
2021/09/15 09:59:21;;;;;;;5.13;4.63;;;25.20;99.90;;;;;;5047479;28;20593;-83
2021/09/15 10:01:49;;;;;;;5.40;4.90;;;25.40;99.90;;;;;;5051165;28;20302;-83
2021/09/15 10:04:17;;;;;;;5.55;5.05;;;25.50;99.90;;;;;;5063832;28;20300;-83
2021/09/15 10:06:44;;;;;;;5.10;4.63;;;25.50;99.90;;;;;;5078360;28;20182;-83
2021/09/15 10:09:10;;;;;;;5.00;4.50;;;25.60;99.90;;;;;;5061358;28;20666;-84
2021/09/15 10:11:38;;;;;;;5.10;4.25;;;25.50;99.90;;;;;;5055127;28;20173;-81
2021/09/15 10:14:07;;;;;;;5.47;4.88;;;25.40;99.90;;;;;;5070677;28;20217;-80
2021/09/15 10:16:39;;;;;;;4.57;4.15;;;25.50;99.90;;;;;;5059431;28;20189;-81
2021/09/15 10:19:07;;;;;;;5.10;4.60;;;25.80;99.90;;;;;;5079245;28;20455;-79
2021/09/15 10:21:34;;;;;;;5.45;4.65;;;25.90;99.90;;;;;;5062854;28;20212;-81
2021/09/15 10:24:04;;;;;;;5.35;4.28;;;25.90;99.90;;;;;;5065832;28;20284;-82
2021/09/15 10:26:42;;;;;;;5.13;4.50;;;26.00;99.90;;;;;;5071888;28;20257;-82
2021/09/15 10:29:28;;;;;;;6.78;4.55;;;26.20;99.90;;;;;;5076931;28;20204;-82
2021/09/15 10:32:03;;;;;;;4.35;3.97;;;26.50;99.90;;;;;;5081428;28;20822;-80
2021/09/15 10:37:13;;;;;;;4.65;4.25;;;26.60;99.90;;;;;;5083507;28;20307;-81
2021/09/15 10:40:00;;;;;;;5.30;4.80;;;26.70;99.90;;;;;;5071607;28;20193;-80
2021/09/15 10:42:38;;;;;;;4.13;3.83;;;26.80;99.90;;;;;;5078283;28;20233;-80
2021/09/15 10:45:14;;;;;;;5.43;4.35;;;26.80;99.90;;;;;;5063288;28;20190;-80
2021/09/15 10:47:44;;;;;;;5.35;4.50;;;27.00;99.90;;;;;;5060317;28;20233;-81
2021/09/15 10:50:12;;;;;;;5.45;3.97;;;27.10;99.90;;;;;;5054959;28;20173;-79
2021/09/15 10:52:37;;;;;;;4.80;4.40;;;27.10;99.90;;;;;;5060702;28;20239;-80
2021/09/15 10:55:15;;;;;;;4.60;4.20;;;27.10;99.90;;;;;;5059061;28;20203;-81
2021/09/15 10:57:44;;;;;;;6.18;4.88;;;27.10;99.90;;;;;;5055201;28;20549;-78
2021/09/15 11:00:16;;;;;;;4.72;4.10;;;27.00;99.90;;;;;;5055502;28;20257;-78
2021/09/15 11:02:43;;;;;;;4.93;4.53;;;26.90;99.90;;;;;;5050109;28;20221;-79
2021/09/15 11:05:27;;;;;;;5.75;5.25;;;26.80;99.90;;;;;;5069656;28;20227;-80
2021/09/15 11:07:53;;;;;;;5.20;4.65;;;26.70;99.90;;;;;;5065566;28;20520;-79
2021/09/15 11:12:58;;;;;;;6.25;4.40;;;26.30;99.90;;;;;;5068700;28;20259;-79
2021/09/15 11:15:26;;;;;;;4.95;4.55;;;26.10;99.90;;;;;;5043682;28;20193;-79
2021/09/15 11:17:52;;;;;;;4.57;4.18;;;26.00;99.90;;;;;;5068076;28;20966;-79
2021/09/15 11:20:23;;;;;;;5.60;4.40;;;25.70;99.90;;;;;;5052418;28;20193;-79
2021/09/15 11:22:49;;;;;;;5.03;4.50;;;25.60;99.90;;;;;;5050688;28;20393;-79
2021/09/15 11:25:26;;;;;;;4.28;3.88;;;25.50;99.90;;;;;;5066370;28;20795;-79
2021/09/15 11:28:15;;;;;;;5.13;4.57;;;25.30;99.90;;;;;;5050834;28;20472;-79
2021/09/15 11:30:57;;;;;;;4.55;4.13;;;25.00;99.90;;;;;;5069788;28;20245;-78
2021/09/15 11:33:36;;;;;;;4.78;4.13;;;24.70;99.90;;;;;;5050535;28;20208;-79
2021/09/15 11:36:07;;;;;;;4.97;4.45;;;24.40;99.90;;;;;;5051600;28;20193;-79
2021/09/15 11:38:36;;;;;;;4.82;4.32;;;24.10;99.90;;;;;;5050741;28;20706;-79
2021/09/15 11:41:13;;;;;;;4.38;3.97;;;23.90;99.90;;;;;;5049726;28;20212;-78
2021/09/15 11:43:43;;;;;;;5.30;4.80;;;23.80;99.90;;;;;;5049285;28;20608;-78
2021/09/15 11:46:08;;;;;;;5.38;4.78;;;23.70;99.90;;;;;;5069055;28;20181;-79
2021/09/15 11:48:38;;;;;;;4.53;4.07;;;23.60;99.90;;;;;;5051075;28;20189;-78
2021/09/15 11:51:25;;;;;;;4.65;4.25;;;23.60;99.90;;;;;;5058154;28;20209;-78
2021/09/15 11:53:57;;;;;;;4.63;4.22;;;23.50;99.90;;;;;;5053379;28;20235;-78
2021/09/15 11:56:36;;;;;;;6.20;4.13;;;23.50;99.90;;;;;;5049556;28;20655;-79
2021/09/15 11:59:03;;;;;;;6.82;4.72;;;23.20;99.90;;;;;;5065970;28;20173;-79
2021/09/15 12:01:31;;;;;;;5.25;4.53;;;23.10;99.90;;;;;;5062448;28;20224;-80
2021/09/15 12:04:02;;;;;;;4.80;4.30;;;23.00;99.90;;;;;;5066455;28;20576;-80
2021/09/15 12:06:29;;;;;;;4.40;4.00;;;23.20;99.90;;;;;;5048920;28;20192;-80
2021/09/15 12:08:57;;;;;;;3.75;3.45;;;23.50;99.90;;;;;;5049161;28;20273;-78
2021/09/15 12:11:32;;;;;;;4.35;3.22;;;23.70;99.90;;;;;;5049416;28;20225;-78
2021/09/15 12:14:00;;;;;;;4.28;3.35;;;23.90;99.90;;;;;;5068139;28;20204;-79
2021/09/15 12:16:27;;;;;;;3.95;3.55;;;23.90;99.90;;;;;;5065207;28;20268;-79
2021/09/15 12:18:53;;;;;;;4.18;3.13;;;24.20;99.90;;;;;;5043490;28;20193;-79
2021/09/15 12:21:21;;;;;;;3.40;3.10;;;24.30;99.90;;;;;;5061521;28;20198;-80
2021/09/15 12:23:47;;;;;;;3.03;2.75;;;24.30;99.90;;;;;;5061784;28;20193;-79
2021/09/15 12:26:13;;;;;;;4.00;2.90;;;24.40;99.90;;;;;;5042974;28;20185;-78
2021/09/15 12:28:39;;;;;;;3.50;3.20;;;24.40;99.90;;;;;;5042313;28;20556;-78
2021/09/15 12:31:13;;;;;;;3.65;3.00;;;24.50;99.90;;;;;;5043744;28;20181;-78
2021/09/15 12:33:40;;;;;;;4.10;3.47;;;24.60;99.90;;;;;;5061783;28;20254;-77
2021/09/15 12:36:16;;;;;;;3.95;3.22;;;24.60;99.90;;;;;;5062074;28;20642;-80
2021/09/15 12:38:57;;;;;;;3.78;3.38;;;24.50;99.90;;;;;;5042478;28;20181;-79
2021/09/15 12:41:24;;;;;;;4.28;3.90;;;24.50;99.90;;;;;;5041039;28;20212;-79
2021/09/15 12:44:00;;;;;;;4.47;4.07;;;24.70;99.90;;;;;;5042474;28;20626;-79
2021/09/15 12:46:29;;;;;;;3.70;3.40;;;24.80;99.90;;;;;;5042565;28;20660;-79
2021/09/15 12:48:55;;;;;;;4.20;3.20;;;24.70;99.90;;;;;;5061475;28;20781;-79
2021/09/15 12:51:22;;;;;;;4.18;3.78;;;24.80;99.90;;;;;;5060202;28;20221;-79